Time;durP1;ratioP1;P1;durP2;ratioP2;P2;SDS_P1;SDS_P2;PMS_P1;PMS_P2;Temp;Humidity;BMP_temperature;BMP_pressure;BME280_temperature;BME280_humidity;BME280_pressure;Samples;Min_cycle;Max_cycle;Signal;HPM_P1;HPM_P2
2021/07/22 00:00:40;;;;;;;1.07;0.80;;;;;;;30.24;40.06;99102.36;1737771;81;21153;-49
2021/07/22 00:03:08;;;;;;;0.78;0.78;;;;;;;30.23;40.08;99100.70;1730687;81;21106;-48
2021/07/22 00:05:35;;;;;;;0.60;0.60;;;;;;;30.24;40.07;99106.95;1722399;83;21110;-49
2021/07/22 00:08:09;;;;;;;0.90;0.80;;;;;;;30.23;40.07;99106.62;1722150;83;21549;-50
2021/07/22 00:10:33;;;;;;;0.70;0.70;;;;;;;30.22;40.08;99107.14;1751202;81;21102;-50
2021/07/22 00:13:01;;;;;;;0.70;0.70;;;;;;;30.20;40.11;99109.21;1735827;82;21036;-50
2021/07/22 00:15:29;;;;;;;1.17;0.78;;;;;;;30.20;40.09;99106.50;1643017;84;21021;-50
2021/07/22 00:17:56;;;;;;;1.65;0.95;;;;;;;30.19;40.08;99110.23;1721973;83;21031;-46
2021/07/22 00:20:23;;;;;;;0.62;0.62;;;;;;;30.19;40.11;99108.87;1727430;83;20995;-49
2021/07/22 00:22:50;;;;;;;1.12;0.62;;;;;;;30.18;40.10;99108.56;1694546;83;21047;-50
2021/07/22 00:25:17;;;;;;;1.27;0.80;;;;;;;30.18;40.09;99111.28;1720835;83;21078;-50
2021/07/22 00:27:44;;;;;;;0.80;0.80;;;;;;;30.17;40.10;99109.59;1717147;83;21055;-49
2021/07/22 00:30:13;;;;;;;1.12;0.75;;;;;;;30.16;40.14;99111.96;1681956;84;21008;-48
2021/07/22 00:32:42;;;;;;;0.68;0.68;;;;;;;30.15;40.12;99111.66;1753177;80;21025;-49
2021/07/22 00:35:10;;;;;;;0.93;0.70;;;;;;;30.14;40.11;99116.74;1719401;81;22130;-50
2021/07/22 00:37:37;;;;;;;0.72;0.72;;;;;;;30.12;40.13;99110.67;1749906;81;21124;-50
2021/07/22 00:40:05;;;;;;;0.55;0.55;;;;;;;30.12;40.12;99116.09;1775091;80;21071;-49
2021/07/22 00:42:56;;;;;;;0.70;0.70;;;;;;;30.10;40.16;99117.64;1777730;80;21183;-50
2021/07/22 00:45:23;;;;;;;0.70;0.70;;;;;;;30.11;40.16;99122.55;1755979;80;22149;-49
2021/07/22 00:47:51;;;;;;;0.62;0.62;;;;;;;30.08;40.16;99119.71;1765710;80;21035;-49
2021/07/22 00:50:18;;;;;;;0.70;0.70;;;;;;;30.09;40.16;99120.55;1753745;81;21118;-49
2021/07/22 00:52:45;;;;;;;1.20;1.10;;;;;;;30.07;40.17;99123.44;1740419;81;21238;-50
2021/07/22 00:55:20;;;;;;;1.85;0.75;;;;;;;30.06;40.19;99123.63;1759969;79;21046;-50
2021/07/22 00:57:47;;;;;;;5.10;0.90;;;;;;;30.06;40.19;99127.20;1804689;79;20976;-50
2021/07/22 01:00:15;;;;;;;0.60;0.60;;;;;;;30.05;40.18;99127.39;1765665;81;21016;-50
2021/07/22 01:02:43;;;;;;;0.93;0.85;;;;;;;30.05;40.21;99132.30;1729439;82;21151;-50
2021/07/22 01:05:10;;;;;;;0.68;0.68;;;;;;;30.03;40.22;99130.78;1729505;82;21056;-50
2021/07/22 01:07:38;;;;;;;0.80;0.80;;;;;;;30.02;40.25;99128.59;1680739;84;21063;-49
2021/07/22 01:10:09;;;;;;;0.70;0.70;;;;;;;30.01;40.25;99133.19;1681750;82;21312;-50
2021/07/22 01:12:37;;;;;;;0.70;0.70;;;;;;;30.00;40.28;99130.66;1726575;83;21052;-49
2021/07/22 01:15:05;;;;;;;0.68;0.68;;;;;;;29.99;40.25;99139.33;1726774;83;21044;-49
2021/07/22 01:17:44;;;;;;;0.90;0.70;;;;;;;29.99;40.27;99133.03;1723185;83;21011;-50
2021/07/22 01:20:20;;;;;;;0.70;0.70;;;;;;;29.98;40.23;99136.27;1796200;79;21016;-49
2021/07/22 01:22:51;;;;;;;1.17;0.88;;;;;;;29.97;40.25;99142.72;1785419;79;21184;-50
2021/07/22 01:25:19;;;;;;;0.80;0.80;;;;;;;29.95;40.28;99142.06;1730461;81;21054;-47
2021/07/22 01:27:46;;;;;;;0.80;0.80;;;;;;;29.94;40.27;99152.61;1706046;81;21624;-50
2021/07/22 01:30:14;;;;;;;0.70;0.70;;;;;;;29.94;40.29;99153.97;1748933;80;21066;-51
2021/07/22 01:32:42;;;;;;;4.08;0.90;;;;;;;29.93;40.27;99159.05;1748111;82;20967;-50
2021/07/22 01:35:11;;;;;;;0.70;0.70;;;;;;;29.93;40.27;99155.51;1747906;82;21022;-50
2021/07/22 01:37:39;;;;;;;1.00;1.00;;;;;;;29.91;40.31;99157.05;1747912;82;21054;-50
2021/07/22 01:40:09;;;;;;;0.90;0.90;;;;;;;29.91;40.31;99158.41;1748116;82;21102;-49
2021/07/22 01:42:36;;;;;;;0.75;0.72;;;;;;;29.90;40.28;99152.64;1747821;82;21030;-49
2021/07/22 01:45:06;;;;;;;1.52;0.72;;;;;;;29.89;40.32;99153.69;1747821;82;21514;-49
2021/07/22 01:47:36;;;;;;;1.17;0.80;;;;;;;29.88;40.32;99147.92;1725969;82;21082;-50
2021/07/22 01:50:06;;;;;;;0.80;0.80;;;;;;;29.87;40.32;99153.01;1747836;82;21074;-50
2021/07/22 01:52:34;;;;;;;0.60;0.60;;;;;;;29.86;40.28;99154.55;1747548;82;22214;-50
2021/07/22 01:55:02;;;;;;;1.10;0.90;;;;;;;29.86;40.33;99153.19;1744269;82;21027;-48
2021/07/22 01:57:30;;;;;;;1.10;1.00;;;;;;;29.85;40.36;99157.78;1731562;82;21068;-49
2021/07/22 02:00:04;;;;;;;1.62;0.75;;;;;;;29.84;40.34;99158.80;1731896;82;21063;-49
2021/07/22 02:02:28;;;;;;;1.75;0.90;;;;;;;29.84;40.34;99158.80;1702780;82;21089;-49
2021/07/22 02:04:56;;;;;;;0.88;0.88;;;;;;;29.83;40.31;99165.27;1699478;82;22170;-49
2021/07/22 02:07:23;;;;;;;0.70;0.70;;;;;;;29.81;40.35;99167.33;1722179;82;21305;-49
2021/07/22 02:09:58;;;;;;;1.17;1.07;;;;;;;29.81;40.33;99170.87;1734853;81;21067;-49
2021/07/22 02:12:25;;;;;;;2.25;0.70;;;;;;;29.80;40.33;99172.41;1752629;81;21301;-49
2021/07/22 02:14:52;;;;;;;1.15;0.82;;;;;;;29.80;40.37;99171.06;1753238;81;21305;-50
2021/07/22 02:17:20;;;;;;;0.80;0.80;;;;;;;29.80;40.37;99168.34;1744515;81;21729;-49
2021/07/22 02:19:49;;;;;;;0.80;0.80;;;;;;;29.79;40.36;99169.36;1744341;81;21051;-50
2021/07/22 02:22:16;;;;;;;0.90;0.90;;;;;;;29.79;40.37;99168.01;1752274;81;21067;-50
2021/07/22 02:24:44;;;;;;;1.10;1.00;;;;;;;29.79;40.37;99162.09;1747550;81;21016;-49
2021/07/22 02:27:16;;;;;;;0.80;0.80;;;;;;;29.79;40.33;99168.88;1745988;81;21519;-49
2021/07/22 02:29:44;;;;;;;0.85;0.85;;;;;;;29.80;40.33;99165.64;1751884;80;21448;-48
2021/07/22 02:32:11;;;;;;;0.75;0.70;;;;;;;29.81;40.32;99165.45;1756247;81;20979;-49
2021/07/22 02:34:39;;;;;;;0.70;0.70;;;;;;;29.85;40.25;99174.05;1756456;81;21006;-49
2021/07/22 02:37:08;;;;;;;1.00;0.80;;;;;;;29.90;40.18;99171.63;1731170;80;21035;-47
2021/07/22 02:39:38;;;;;;;0.72;0.72;;;;;;;29.97;40.06;99175.27;1723916;83;21521;-49
2021/07/22 02:42:06;;;;;;;1.05;1.00;;;;;;;30.05;39.92;99172.16;1726381;82;21104;-49
2021/07/22 02:44:38;;;;;;;0.62;0.62;;;;;;;30.13;39.77;99174.77;1724161;83;21036;-49
2021/07/22 02:47:09;;;;;;;1.40;0.98;;;;;;;30.22;39.59;99184.48;1753394;81;21098;-49
2021/07/22 02:49:38;;;;;;;0.90;0.90;;;;;;;30.33;39.40;99181.82;1708542;81;21076;-49
2021/07/22 02:52:07;;;;;;;0.68;0.68;;;;;;;30.46;39.15;99185.23;1756101;81;21031;-49
2021/07/22 02:54:35;;;;;;;0.70;0.70;;;;;;;30.59;38.88;99191.34;1756007;81;21799;-49
2021/07/22 02:57:02;;;;;;;0.80;0.80;;;;;;;30.73;38.63;99191.31;1786870;78;20995;-49
2021/07/22 02:59:30;;;;;;;1.07;0.88;;;;;;;30.90;38.34;99195.98;1791623;78;21066;-49
2021/07/22 03:01:58;;;;;;;0.80;0.72;;;;;;;31.08;38.02;99192.83;1821661;78;21565;-49
2021/07/22 03:04:25;;;;;;;1.02;1.00;;;;;;;31.26;37.69;99196.98;1756562;80;21054;-49
2021/07/22 03:07:04;;;;;;;1.20;1.10;;;;;;;31.46;37.33;99201.24;1702257;83;21812;-50
2021/07/22 03:09:31;;;;;;;1.00;1.00;;;;;;;31.68;36.92;99207.52;1752116;81;21008;-50
2021/07/22 03:11:58;;;;;;;0.72;0.72;;;;;;;31.88;36.58;99212.27;1739709;82;21386;-49
2021/07/22 03:14:26;;;;;;;1.02;0.75;;;;;;;32.07;36.21;99205.30;1739763;82;21036;-49
2021/07/22 03:16:53;;;;;;;1.25;0.80;;;;;;;32.28;35.84;99207.06;1708602;82;21067;-50
2021/07/22 03:19:25;;;;;;;0.98;0.90;;;;;;;32.50;35.42;99205.93;1737563;82;21227;-49
2021/07/22 03:21:54;;;;;;;0.72;0.72;;;;;;;32.74;35.00;99207.83;1706886;82;21071;-49
2021/07/22 03:24:25;;;;;;;0.70;0.70;;;;;;;32.98;34.59;99218.67;1663157;83;21100;-50
2021/07/22 03:26:52;;;;;;;1.27;1.17;;;;;;;33.20;34.20;99216.64;1780452;80;21019;-49
2021/07/22 03:29:20;;;;;;;1.30;0.60;;;;;;;33.45;33.78;99216.05;1747354;80;21038;-50
2021/07/22 03:31:47;;;;;;;0.60;0.60;;;;;;;33.67;33.39;99216.16;1758639;80;21514;-50
2021/07/22 03:34:17;;;;;;;0.78;0.78;;;;;;;33.88;32.99;99215.11;1778111;80;21027;-49
2021/07/22 03:36:46;;;;;;;0.80;0.72;;;;;;;34.12;32.61;99216.02;1775956;80;21046;-50
2021/07/22 03:39:18;;;;;;;0.70;0.70;;;;;;;34.37;32.20;99220.28;1778328;80;21043;-48
2021/07/22 03:41:48;;;;;;;0.68;0.68;;;;;;;34.59;31.80;99219.45;1778227;80;21071;-48
2021/07/22 03:44:20;;;;;;;0.93;0.70;;;;;;;34.81;31.44;99220.00;1771063;80;21184;-50
2021/07/22 03:46:48;;;;;;;2.67;0.80;;;;;;;35.02;31.07;99220.21;1778565;80;20948;-50
2021/07/22 03:49:15;;;;;;;0.72;0.72;;;;;;;35.23;30.71;99223.14;1769160;80;21015;-50
2021/07/22 03:51:42;;;;;;;0.62;0.62;;;;;;;35.43;30.37;99222.99;1778737;80;21015;-50
2021/07/22 03:54:10;;;;;;;0.70;0.70;;;;;;;35.64;30.06;99225.02;1769248;80;21032;-50
2021/07/22 03:56:37;;;;;;;0.50;0.45;;;;;;;35.81;29.79;99224.81;1749130;81;21176;-49
2021/07/22 03:59:06;;;;;;;2.05;0.70;;;;;;;35.98;29.49;99227.80;1758823;80;21056;-50
2021/07/22 04:01:35;;;;;;;0.70;0.70;;;;;;;36.15;29.20;99233.52;1747164;80;21951;-49
2021/07/22 04:04:04;;;;;;;0.95;0.78;;;;;;;36.32;28.94;99239.80;1777047;80;22195;-49
2021/07/22 04:06:36;;;;;;;0.60;0.60;;;;;;;36.47;28.66;99236.14;1757901;80;21086;-50
2021/07/22 04:09:05;;;;;;;1.15;0.70;;;;;;;36.61;28.41;99234.06;1756540;81;21148;-50
2021/07/22 04:11:37;;;;;;;0.80;0.80;;;;;;;36.77;28.17;99242.23;1734873;81;21075;-48
2021/07/22 04:14:05;;;;;;;0.80;0.70;;;;;;;36.88;27.99;99238.69;1754596;81;21024;-46
2021/07/22 04:16:36;;;;;;;0.90;0.70;;;;;;;36.98;27.80;99237.59;1778109;80;22302;-49
2021/07/22 04:19:05;;;;;;;0.82;0.70;;;;;;;37.06;27.68;99246.59;1774089;80;21318;-50
2021/07/22 04:21:34;;;;;;;0.70;0.70;;;;;;;37.14;27.52;99240.23;1772110;80;21150;-51
2021/07/22 04:24:18;;;;;;;0.88;0.78;;;;;;;37.25;27.35;99239.98;1774852;80;26620;-49
2021/07/22 04:26:52;;;;;;;1.55;0.70;;;;;;;37.39;27.15;99248.00;1775510;80;21047;-48
2021/07/22 04:29:24;;;;;;;0.62;0.60;;;;;;;37.49;27.03;99253.75;1743223;80;22128;-49
2021/07/22 04:31:52;;;;;;;2.37;0.70;;;;;;;37.60;26.84;99246.63;1768546;80;21023;-50
2021/07/22 04:34:27;;;;;;;0.78;0.78;;;;;;;37.67;26.70;99245.45;1742521;81;21107;-50
2021/07/22 04:36:59;;;;;;;0.75;0.75;;;;;;;37.72;26.58;99246.95;1710521;80;21007;-49
2021/07/22 04:39:31;;;;;;;0.70;0.70;;;;;;;37.62;26.59;99246.67;1769796;80;21125;-50
2021/07/22 04:42:05;;;;;;;0.80;0.60;;;;;;;37.43;26.77;99242.36;1744706;81;21517;-47
2021/07/22 04:44:48;;;;;;;;;;;;;;;37.13;27.10;99251.43;1728884;81;21034;-50
2021/07/22 04:47:35;;;;;;;0.90;0.72;;;;;;;36.82;27.50;99249.23;1730609;80;21193;-50
2021/07/22 04:50:07;;;;;;;0.60;0.60;;;;;;;36.54;27.84;99256.07;1734854;82;21050;-50
2021/07/22 04:52:45;;;;;;;0.98;0.78;;;;;;;36.33;28.09;99256.53;1777755;79;21043;-50
2021/07/22 04:55:13;;;;;;;0.90;0.70;;;;;;;36.10;28.43;99255.27;1761836;79;21015;-49
2021/07/22 04:57:40;;;;;;;0.95;0.70;;;;;;;35.90;28.70;99256.84;1812705;79;21019;-49
2021/07/22 05:00:10;;;;;;;0.70;0.70;;;;;;;35.69;29.01;99251.19;1813075;79;21128;-50
2021/07/22 05:02:48;;;;;;;0.72;0.70;;;;;;;35.47;29.26;99246.09;1812011;79;20968;-50
2021/07/22 05:05:15;;;;;;;0.62;0.60;;;;;;;35.27;29.54;99242.67;1813002;79;21018;-49
2021/07/22 05:08:01;;;;;;;0.90;0.75;;;;;;;35.08;29.83;99239.81;1685040;83;21042;-49
2021/07/22 05:10:29;;;;;;;0.75;0.70;;;;;;;34.89;30.11;99244.89;1732191;81;21036;-50
2021/07/22 05:13:14;;;;;;;0.93;0.80;;;;;;;34.74;30.33;99251.46;1731453;82;21192;-48
2021/07/22 05:15:59;;;;;;;1.90;0.78;;;;;;;34.59;30.58;99250.88;1801957;79;21095;-50
2021/07/22 05:18:28;;;;;;;0.60;0.60;;;;;;;34.43;30.77;99254.91;1768906;79;21004;-49
2021/07/22 05:21:08;;;;;;;0.60;0.60;;;;;;;34.31;31.00;99258.83;1763005;79;21157;-50
2021/07/22 05:23:41;;;;;;;0.60;0.60;;;;;;;34.19;31.21;99253.69;1738810;80;21052;-49
2021/07/22 05:26:10;;;;;;;0.65;0.62;;;;;;;34.09;31.32;99258.75;1689628;80;21028;-50
2021/07/22 05:28:57;;;;;;;2.15;1.20;;;;;;;33.99;31.52;99257.28;1771739;80;21040;-49
2021/07/22 05:31:42;;;;;;;1.22;0.78;;;;;;;33.90;31.63;99251.74;1660770;84;21082;-50
2021/07/22 05:34:11;;;;;;;0.80;0.70;;;;;;;33.81;31.80;99261.18;1715038;82;21032;-49
2021/07/22 05:36:48;;;;;;;0.60;0.60;;;;;;;33.72;31.91;99255.64;1730194;82;21071;-50
2021/07/22 05:39:20;;;;;;;1.02;0.60;;;;;;;33.64;32.04;99272.51;1723014;83;22019;-49
2021/07/22 05:41:47;;;;;;;0.70;0.70;;;;;;;33.57;32.18;99262.09;1723815;83;21077;-48
2021/07/22 05:44:14;;;;;;;0.88;0.68;;;;;;;33.51;32.28;99263.78;1703244;83;21079;-50
2021/07/22 05:46:41;;;;;;;0.72;0.70;;;;;;;33.46;32.31;99264.10;1702165;83;21096;-49
2021/07/22 05:49:10;;;;;;;0.80;0.80;;;;;;;33.40;32.50;99262.20;1679335;85;21079;-51
2021/07/22 05:51:37;;;;;;;1.40;0.90;;;;;;;33.33;32.59;99264.38;1657985;85;21545;-49
2021/07/22 05:54:04;;;;;;;0.78;0.78;;;;;;;33.28;32.69;99263.33;1679397;85;21372;-49
2021/07/22 05:56:31;;;;;;;0.95;0.70;;;;;;;33.22;32.78;99266.38;1682376;84;21018;-48
2021/07/22 05:58:58;;;;;;;1.05;0.80;;;;;;;33.18;32.87;99262.36;1680479;85;21065;-48
2021/07/22 06:01:26;;;;;;;0.68;0.68;;;;;;;33.13;32.96;99276.57;1680966;85;21047;-50
2021/07/22 06:03:53;;;;;;;0.60;0.60;;;;;;;33.07;33.07;99272.47;1678990;85;21145;-50
2021/07/22 06:06:20;;;;;;;0.70;0.57;;;;;;;33.03;33.17;99273.94;1696169;82;22183;-50
2021/07/22 06:08:49;;;;;;;0.60;0.60;;;;;;;32.96;33.23;99273.38;1688354;84;21098;-50
2021/07/22 06:11:16;;;;;;;0.70;0.68;;;;;;;32.92;33.29;99271.30;1698912;82;21021;-48
2021/07/22 06:13:45;;;;;;;2.60;0.85;;;;;;;32.89;33.36;99276.62;1738858;81;21051;-50
2021/07/22 06:16:13;;;;;;;0.57;0.53;;;;;;;32.86;33.42;99276.19;1760800;81;21064;-51
2021/07/22 06:18:42;;;;;;;0.70;0.70;;;;;;;32.83;33.45;99276.06;1760865;81;20957;-49
2021/07/22 06:21:14;;;;;;;1.12;0.78;;;;;;;32.80;33.52;99272.41;1760458;81;21027;-49
2021/07/22 06:23:43;;;;;;;1.77;1.10;;;;;;;32.77;33.54;99271.44;1713851;82;21103;-50
2021/07/22 06:26:10;;;;;;;1.12;0.60;;;;;;;32.73;33.62;99272.88;1703463;83;20936;-50
2021/07/22 06:28:37;;;;;;;0.65;0.65;;;;;;;32.71;33.64;99279.06;1724073;83;21114;-50
2021/07/22 06:31:04;;;;;;;0.93;0.93;;;;;;;32.67;33.70;99279.16;1724093;82;22134;-49
2021/07/22 06:33:31;;;;;;;2.58;0.75;;;;;;;32.63;33.76;99281.95;1725473;83;21099;-49
2021/07/22 06:35:58;;;;;;;0.60;0.60;;;;;;;32.58;33.83;99286.10;1655347;85;21044;-49
2021/07/22 06:38:29;;;;;;;0.53;0.53;;;;;;;32.55;33.88;99279.69;1727237;81;21019;-48
2021/07/22 06:40:54;;;;;;;0.80;0.80;;;;;;;32.54;33.94;99282.61;1712686;83;21097;-48
2021/07/22 06:43:20;;;;;;;1.00;0.82;;;;;;;32.51;33.98;99287.93;1688273;84;21029;-48
2021/07/22 06:45:48;;;;;;;0.70;0.70;;;;;;;32.48;34.02;99274.74;1728203;82;21085;-49
2021/07/22 06:48:15;;;;;;;1.82;0.80;;;;;;;32.45;34.04;99285.17;1737179;82;21121;-49
2021/07/22 06:50:42;;;;;;;1.27;0.65;;;;;;;32.44;34.10;99293.03;1750931;81;21568;-49
2021/07/22 06:53:09;;;;;;;0.72;0.72;;;;;;;32.41;34.11;99292.91;1717720;82;21521;-49
2021/07/22 06:55:36;;;;;;;0.98;0.80;;;;;;;32.39;34.17;99290.91;1740769;81;21047;-49
2021/07/22 06:58:06;;;;;;;0.80;0.80;;;;;;;32.38;34.19;99291.94;1744957;82;21110;-49
2021/07/22 07:00:34;;;;;;;0.57;0.57;;;;;;;32.36;34.23;99296.75;1744758;82;21043;-47
2021/07/22 07:03:41;;;;;;;0.80;0.80;;;;;;;32.34;34.25;99291.50;1745174;82;22118;-48
2021/07/22 07:06:08;;;;;;;1.10;0.70;;;;;;;32.33;34.29;99294.42;1705195;83;21095;-50
2021/07/22 07:08:35;;;;;;;4.92;0.78;;;;;;;32.32;34.31;99300.92;1683193;85;21012;-48
2021/07/22 07:11:01;;;;;;;0.65;0.62;;;;;;;32.31;34.29;99298.73;1684780;83;21099;-48
2021/07/22 07:13:28;;;;;;;0.90;0.90;;;;;;;32.31;34.35;99296.51;1689304;83;22252;-49
2021/07/22 07:15:55;;;;;;;0.80;0.80;;;;;;;32.29;34.37;99295.88;1711850;83;42084;-49
2021/07/22 07:18:22;;;;;;;1.02;0.80;;;;;;;32.27;34.38;99297.43;1711545;83;21083;-50
2021/07/22 07:20:48;;;;;;;0.82;0.82;;;;;;;32.29;34.40;99297.23;1711664;83;21046;-49
2021/07/22 07:23:15;;;;;;;0.70;0.70;;;;;;;32.27;34.40;99298.80;1688723;83;21075;-48
2021/07/22 07:25:42;;;;;;;0.93;0.70;;;;;;;32.26;34.41;99298.45;1712004;83;20988;-50
2021/07/22 07:28:08;;;;;;;1.32;0.85;;;;;;;32.25;34.42;99297.33;1711413;83;21534;-46
2021/07/22 07:30:36;;;;;;;1.52;0.80;;;;;;;32.24;34.42;99300.55;1712285;83;21147;-49
2021/07/22 07:33:04;;;;;;;0.85;0.70;;;;;;;32.24;34.50;99301.08;1715763;83;21055;-50
2021/07/22 07:35:31;;;;;;;0.70;0.60;;;;;;;32.21;34.49;99300.44;1715385;83;21427;-50
2021/07/22 07:37:58;;;;;;;0.80;0.80;;;;;;;32.20;34.54;99302.83;1715196;83;21095;-49
2021/07/22 07:40:24;;;;;;;0.60;0.60;;;;;;;32.19;34.58;99300.30;1751217;80;21120;-50
2021/07/22 07:42:51;;;;;;;1.60;0.72;;;;;;;32.18;34.56;99298.11;1751953;80;21080;-49
2021/07/22 07:45:17;;;;;;;0.60;0.60;;;;;;;32.17;34.60;99301.86;1773331;80;22278;-49
2021/07/22 07:47:45;;;;;;;1.12;0.70;;;;;;;32.17;34.64;99300.50;1748842;80;21038;-49
2021/07/22 07:50:12;;;;;;;0.50;0.50;;;;;;;32.16;34.62;99300.20;1700354;84;21028;-49
2021/07/22 07:52:39;;;;;;;0.93;0.82;;;;;;;32.16;34.62;99303.42;1701572;84;21497;-49
2021/07/22 07:55:07;;;;;;;0.70;0.70;;;;;;;32.15;34.60;99301.76;1700737;83;22671;-49
2021/07/22 07:57:33;;;;;;;0.60;0.60;;;;;;;32.14;34.66;99302.78;1707667;84;21116;-50
2021/07/22 08:00:01;;;;;;;0.90;0.88;;;;;;;32.12;34.69;99302.98;1707754;84;21013;-50
2021/07/22 08:02:27;;;;;;;0.90;0.82;;;;;;;32.11;34.68;99308.13;1707197;84;21104;-50
2021/07/22 08:04:56;;;;;;;0.85;0.70;;;;;;;32.10;34.71;99305.06;1687570;83;21029;-50
2021/07/22 08:07:24;;;;;;;0.65;0.65;;;;;;;32.10;34.71;99305.59;1695770;84;21066;-50
2021/07/22 08:09:51;;;;;;;0.75;0.75;;;;;;;32.09;34.75;99306.63;1688484;83;21071;-50
2021/07/22 08:12:18;;;;;;;0.60;0.60;;;;;;;32.08;34.76;99304.92;1690899;84;21055;-49
2021/07/22 08:14:45;;;;;;;1.12;1.02;;;;;;;32.06;34.77;99305.16;1710668;82;21084;-50
2021/07/22 08:17:15;;;;;;;0.82;0.82;;;;;;;32.06;34.76;99303.80;1680558;84;21063;-50
2021/07/22 08:19:42;;;;;;;0.80;0.80;;;;;;;32.07;34.77;99302.73;1726116;83;21230;-49
2021/07/22 08:22:13;;;;;;;0.70;0.70;;;;;;;32.07;34.77;99307.34;1703452;83;21073;-50
2021/07/22 08:24:38;;;;;;;0.70;0.70;;;;;;;32.07;34.79;99304.09;1706485;83;21056;-49
2021/07/22 08:27:05;;;;;;;0.82;0.82;;;;;;;32.08;34.76;99302.20;1707465;84;21024;-50
2021/07/22 08:29:32;;;;;;;1.25;0.90;;;;;;;32.08;34.78;99300.34;1707956;84;21045;-51
2021/07/22 08:31:59;;;;;;;0.93;0.90;;;;;;;32.07;34.74;99304.09;1687526;84;21062;-49
2021/07/22 08:34:25;;;;;;;0.90;0.90;;;;;;;32.08;34.77;99306.29;1687423;84;21551;-50
2021/07/22 08:36:51;;;;;;;0.70;0.70;;;;;;;32.07;34.76;99298.66;1707740;84;21555;-50
2021/07/22 08:39:18;;;;;;;0.88;0.80;;;;;;;32.08;34.76;99294.04;1687464;84;21123;-51
2021/07/22 08:41:46;;;;;;;0.80;0.80;;;;;;;32.07;34.75;99298.66;1707589;84;21546;-50
2021/07/22 08:44:13;;;;;;;0.90;0.88;;;;;;;32.08;34.76;99302.20;1664445;84;21632;-48
2021/07/22 08:46:42;;;;;;;0.80;0.80;;;;;;;32.07;34.76;99302.73;1674316;84;21060;-50
2021/07/22 08:49:10;;;;;;;0.80;0.80;;;;;;;32.06;34.78;99298.35;1702504;83;20985;-49
2021/07/22 08:51:37;;;;;;;0.68;0.57;;;;;;;32.04;34.78;99298.52;1677699;83;21092;-50
2021/07/22 08:54:03;;;;;;;0.90;0.60;;;;;;;32.05;34.77;99300.70;1721983;83;21520;-50
2021/07/22 08:56:30;;;;;;;1.35;0.98;;;;;;;32.04;34.78;99304.45;1689994;83;21594;-50
2021/07/22 08:58:57;;;;;;;0.90;0.90;;;;;;;32.04;34.82;99307.17;1701007;84;21794;-47
2021/07/22 09:01:26;;;;;;;0.90;0.80;;;;;;;32.03;34.82;99305.52;1682915;84;21067;-49
2021/07/22 09:03:53;;;;;;;0.78;0.72;;;;;;;32.04;34.83;99305.81;1703391;84;21646;-51
2021/07/22 09:06:20;;;;;;;0.65;0.65;;;;;;;32.03;34.83;99298.70;1699650;83;21071;-51
2021/07/22 09:08:46;;;;;;;0.60;0.60;;;;;;;32.04;34.83;99307.17;1713011;83;21294;-50
2021/07/22 09:11:13;;;;;;;0.70;0.70;;;;;;;32.04;34.80;99309.89;1713930;82;21093;-50
2021/07/22 09:13:39;;;;;;;0.90;0.80;;;;;;;32.04;34.79;99313.48;1710672;83;21107;-50
2021/07/22 09:16:08;;;;;;;0.60;0.60;;;;;;;32.05;34.79;99312.95;1710607;83;20989;-49
2021/07/22 09:18:39;;;;;;;1.42;0.70;;;;;;;32.05;34.82;99297.98;1709610;83;21376;-50
2021/07/22 09:21:24;;;;;;;0.62;0.62;;;;;;;32.05;34.82;99308.87;1707339;83;21539;-50
2021/07/22 09:24:09;;;;;;;1.02;0.78;;;;;;;32.04;34.79;99304.45;1712471;83;21525;-50
2021/07/22 09:26:39;;;;;;;3.70;1.10;;;;;;;32.06;34.82;99307.87;1729852;82;21038;-49
2021/07/22 09:29:11;;;;;;;0.70;0.70;;;;;;;32.06;34.77;99307.87;1747885;82;21037;-51
2021/07/22 09:31:37;;;;;;;1.22;0.60;;;;;;;32.04;34.78;99307.17;1744085;82;21089;-49
2021/07/22 09:34:21;;;;;;;0.65;0.62;;;;;;;32.05;34.77;99312.95;1735211;82;21810;-50
2021/07/22 11:10:54;;;;;;;0.65;0.65;;;;;;;31.24;35.80;99296.91;1763068;80;22039;-48
2021/07/22 11:13:41;;;;;;;0.80;0.80;;;;;;;31.32;35.59;99298.16;1751360;81;21057;-48
2021/07/22 11:16:31;;;;;;;0.85;0.85;;;;;;;31.38;35.45;99305.52;1748817;82;21201;-49
2021/07/22 11:19:13;;;;;;;0.90;0.62;;;;;;;31.41;35.39;99298.86;1733673;81;21015;-50
2021/07/22 11:21:49;;;;;;;0.75;0.75;;;;;;;31.43;35.32;99305.77;1743552;82;21526;-50
2021/07/22 11:24:23;;;;;;;0.60;0.60;;;;;;;31.44;35.25;99307.47;1760796;80;20988;-51
2021/07/22 11:26:55;;;;;;;1.47;0.80;;;;;;;31.44;35.14;99315.63;1722504;81;21533;-50
2021/07/22 11:29:22;;;;;;;1.35;0.70;;;;;;;31.45;35.17;99300.98;1760280;81;21145;-51
2021/07/22 11:32:02;;;;;;;0.78;0.78;;;;;;;31.46;35.19;99313.55;1743260;81;20990;-50
2021/07/22 11:34:33;;;;;;;0.85;0.85;;;;;;;31.45;35.13;99311.85;1741663;81;21502;-51
2021/07/22 11:37:01;;;;;;;0.80;0.80;;;;;;;31.46;35.13;99308.64;1754873;81;21607;-49
2021/07/22 11:39:37;;;;;;;0.55;0.55;;;;;;;31.45;35.12;99305.05;1760540;81;21129;-51
2021/07/22 11:42:12;;;;;;;1.22;0.80;;;;;;;31.47;35.10;99313.88;1760372;81;21214;-50
2021/07/22 11:44:39;;;;;;;0.62;0.62;;;;;;;31.46;35.08;99305.39;1760260;81;21066;-50
2021/07/22 11:47:13;;;;;;;0.85;0.85;;;;;;;31.46;35.04;99314.08;1760373;81;21498;-49
2021/07/22 11:49:40;;;;;;;1.00;1.00;;;;;;;31.45;35.04;99306.94;1743352;81;21063;-48
2021/07/22 11:52:06;;;;;;;1.05;0.88;;;;;;;31.46;35.07;99312.19;1742999;81;21004;-50
2021/07/22 11:54:33;;;;;;;0.70;0.70;;;;;;;31.45;35.10;99307.77;1760470;81;21056;-49
2021/07/22 11:57:00;;;;;;;1.37;0.78;;;;;;;31.45;35.01;99308.30;1760402;81;21004;-48
2021/07/22 11:59:29;;;;;;;1.57;0.72;;;;;;;31.46;35.01;99301.84;1760923;81;21087;-50
2021/07/22 12:01:57;;;;;;;0.60;0.60;;;;;;;31.46;34.95;99305.92;1760328;81;21102;-49
2021/07/22 12:04:32;;;;;;;0.78;0.70;;;;;;;31.45;34.96;99299.62;1768207;80;21010;-50
2021/07/22 12:07:06;;;;;;;0.70;0.70;;;;;;;31.46;34.95;99307.28;1757764;81;21512;-48
2021/07/22 12:09:53;;;;;;;1.07;0.62;;;;;;;31.46;34.94;99300.48;1773197;80;21086;-50
2021/07/22 12:12:24;;;;;;;1.60;0.60;;;;;;;31.46;34.90;99304.56;1759496;81;20975;-48
2021/07/22 12:14:51;;;;;;;0.70;0.65;;;;;;;31.45;34.90;99306.41;1760596;81;21062;-49
2021/07/22 12:17:18;;;;;;;0.75;0.75;;;;;;;31.45;34.98;99304.22;1747715;81;21015;-49
2021/07/22 12:19:48;;;;;;;1.02;0.80;;;;;;;31.45;34.98;99296.90;1760566;80;21920;-50
2021/07/22 12:22:25;;;;;;;1.00;0.90;;;;;;;31.45;34.95;99300.14;1760016;80;21078;-50
2021/07/22 12:25:08;;;;;;;1.02;0.90;;;;;;;31.45;34.87;99299.62;1760621;80;21078;-49
2021/07/22 12:27:40;;;;;;;0.60;0.60;;;;;;;31.46;34.87;99304.03;1760497;81;21062;-50
2021/07/22 12:30:15;;;;;;;0.85;0.80;;;;;;;31.46;34.87;99299.13;1760367;81;21526;-50
2021/07/22 12:33:01;;;;;;;0.70;0.70;;;;;;;31.47;34.91;99301.65;1760389;81;21089;-49
2021/07/22 12:35:35;;;;;;;2.17;0.60;;;;;;;31.46;34.89;99302.67;1759903;80;21008;-49
2021/07/22 12:38:17;;;;;;;0.60;0.60;;;;;;;31.46;34.82;99298.59;1760354;81;21071;-47
2021/07/22 12:40:59;;;;;;;0.80;0.60;;;;;;;31.47;34.87;99301.65;1735289;81;20974;-49
2021/07/22 12:43:26;;;;;;;0.75;0.70;;;;;;;31.47;34.76;99296.21;1737232;81;20969;-47
2021/07/22 12:45:57;;;;;;;0.80;0.60;;;;;;;31.48;34.86;99297.88;1735281;81;21124;-48
2021/07/22 12:48:38;;;;;;;2.62;0.70;;;;;;;31.48;34.83;99297.88;1758772;81;21013;-48
2021/07/22 12:51:12;;;;;;;0.70;0.70;;;;;;;31.48;34.79;99297.05;1757998;81;21464;-48
2021/07/22 12:53:41;;;;;;;0.90;0.60;;;;;;;31.49;34.85;99298.73;1735039;81;21534;-49
2021/07/22 12:56:07;;;;;;;0.80;0.80;;;;;;;31.49;34.81;99297.38;1735489;81;21014;-48
2021/07/22 12:58:39;;;;;;;0.62;0.53;;;;;;;31.49;34.76;99291.41;1735369;81;21229;-49
2021/07/22 13:01:11;;;;;;;0.70;0.70;;;;;;;31.51;34.73;99293.14;1753550;81;20967;-48
2021/07/22 13:03:41;;;;;;;1.12;0.70;;;;;;;31.51;34.73;99299.41;1732298;81;21177;-49
2021/07/22 13:06:09;;;;;;;0.70;0.70;;;;;;;31.52;34.72;99300.24;1759437;81;21109;-48
2021/07/22 13:08:37;;;;;;;0.75;0.60;;;;;;;31.52;34.66;99296.16;1735418;81;21090;-48
2021/07/22 13:11:06;;;;;;;0.65;0.47;;;;;;;31.51;34.67;99291.78;1732944;81;21146;-49
2021/07/22 13:13:36;;;;;;;0.95;0.70;;;;;;;31.52;34.63;99292.09;1728096;81;21130;-49
2021/07/22 13:16:05;;;;;;;0.78;0.60;;;;;;;31.52;34.62;99301.60;1728260;81;21023;-49
2021/07/22 13:18:33;;;;;;;0.70;0.60;;;;;;;31.53;34.67;99301.94;1728370;81;21122;-49
2021/07/22 13:21:01;;;;;;;0.70;0.70;;;;;;;31.53;34.67;99294.61;1753942;81;20992;-49